Time;durP1;ratioP1;P1;durP2;ratioP2;P2;SDS_P1;SDS_P2;PMS_P1;PMS_P2;Temp;Humidity;BMP_temperature;BMP_pressure;BME280_temperature;BME280_humidity;BME280_pressure;Samples;Min_cycle;Max_cycle;Signal;HPM_P1;HPM_P2
2022/12/13 00:00:07;;;;;;;6.60;4.97;;;0.60;99.90;;;;;;4899947;29;20095;-71
2022/12/13 00:02:32;;;;;;;7.22;4.75;;;0.50;99.90;;;;;;4902159;29;20119;-72
2022/12/13 00:04:58;;;;;;;8.43;5.25;;;0.50;99.90;;;;;;4888300;29;20040;-71
2022/12/13 00:07:24;;;;;;;9.13;5.75;;;0.60;99.90;;;;;;4897522;29;20028;-71
2022/12/13 00:09:49;;;;;;;6.50;5.10;;;0.60;99.90;;;;;;4895873;29;20017;-71
2022/12/13 00:12:15;;;;;;;6.97;5.63;;;0.60;99.90;;;;;;4899065;29;20044;-71
2022/12/13 00:14:40;;;;;;;6.55;4.90;;;0.60;99.90;;;;;;4880833;29;20056;-70
2022/12/13 00:17:06;;;;;;;7.68;5.57;;;0.60;99.90;;;;;;4892177;29;20044;-70
2022/12/13 00:19:32;;;;;;;6.20;4.80;;;0.50;99.90;;;;;;4895164;29;20024;-71
2022/12/13 00:21:57;;;;;;;6.43;4.65;;;0.30;99.90;;;;;;4889078;29;20796;-71
2022/12/13 00:24:23;;;;;;;9.43;6.55;;;0.10;99.90;;;;;;4896933;29;20036;-71
2022/12/13 00:26:48;;;;;;;7.70;5.50;;;0.00;99.90;;;;;;4888893;29;20048;-71
2022/12/13 00:29:14;;;;;;;8.50;5.82;;;0.10;99.90;;;;;;4893906;29;20107;-71
2022/12/13 00:31:40;;;;;;;9.07;5.78;;;0.10;99.90;;;;;;4891464;29;20051;-71
2022/12/13 00:34:06;;;;;;;8.00;5.63;;;0.00;99.90;;;;;;4879714;29;20028;-70
2022/12/13 00:36:31;;;;;;;7.32;5.50;;;0.20;99.90;;;;;;4882228;29;20070;-70
2022/12/13 00:39:00;;;;;;;6.53;5.43;;;0.10;99.90;;;;;;4896713;29;20041;-70
2022/12/13 00:41:36;;;;;;;8.07;6.03;;;0.10;99.90;;;;;;4894801;29;20123;-72
2022/12/13 00:44:02;;;;;;;9.52;7.00;;;0.20;99.90;;;;;;4899361;29;20111;-72
2022/12/13 00:46:28;;;;;;;10.73;7.05;;;0.20;99.90;;;;;;4886842;29;20048;-72
2022/12/13 00:48:57;;;;;;;11.05;7.45;;;0.20;99.90;;;;;;4894727;29;20040;-72
2022/12/13 00:51:25;;;;;;;10.02;6.80;;;0.20;99.90;;;;;;4889229;29;20106;-72
2022/12/13 00:53:51;;;;;;;6.97;5.85;;;0.20;99.90;;;;;;4887275;29;20767;-73
2022/12/13 00:56:20;;;;;;;9.65;6.65;;;0.10;99.90;;;;;;4884825;29;20043;-73
2022/12/13 00:58:48;;;;;;;7.95;5.75;;;0.20;99.90;;;;;;4882468;29;20028;-73
2022/12/13 01:01:16;;;;;;;8.25;5.95;;;0.10;99.90;;;;;;4873270;29;20627;-73
2022/12/13 01:03:42;;;;;;;12.55;7.47;;;-0.10;99.90;;;;;;4886010;29;20032;-73
2022/12/13 01:06:13;;;;;;;9.45;6.95;;;-0.20;99.90;;;;;;4874393;29;20100;-72
2022/12/13 01:08:39;;;;;;;8.18;6.65;;;-0.20;99.90;;;;;;4889407;29;20395;-72
2022/12/13 01:11:06;;;;;;;10.85;7.03;;;-0.30;99.90;;;;;;4881636;29;20036;-72
2022/12/13 01:13:33;;;;;;;11.70;7.72;;;-0.40;99.90;;;;;;4881528;29;20024;-72
2022/12/13 01:16:02;;;;;;;9.70;7.03;;;-0.50;99.90;;;;;;4876294;29;20034;-71
2022/12/13 01:18:27;;;;;;;10.98;7.45;;;-0.60;99.90;;;;;;4878683;29;20044;-71
2022/12/13 01:20:58;;;;;;;10.13;6.93;;;-0.70;99.90;;;;;;4881082;29;20072;-71
2022/12/13 01:23:25;;;;;;;9.27;6.13;;;-0.70;99.90;;;;;;4878078;29;20122;-71
2022/12/13 01:25:51;;;;;;;8.10;6.10;;;-0.80;99.90;;;;;;4874008;29;20052;-70
2022/12/13 01:28:17;;;;;;;9.10;6.40;;;-0.90;99.90;;;;;;4885838;29;20111;-71
2022/12/13 01:30:42;;;;;;;9.10;6.30;;;-1.00;99.90;;;;;;4891758;29;20048;-71
2022/12/13 01:33:08;;;;;;;9.02;6.47;;;-1.00;99.90;;;;;;4886484;29;20603;-70
2022/12/13 01:35:34;;;;;;;9.02;5.85;;;-0.80;99.90;;;;;;4885709;29;20032;-70
2022/12/13 01:38:00;;;;;;;11.20;7.07;;;-0.60;99.90;;;;;;4879610;29;20385;-72
2022/12/13 01:40:26;;;;;;;12.82;7.70;;;-0.50;99.90;;;;;;4877544;29;20092;-72
2022/12/13 01:42:52;;;;;;;9.63;6.93;;;-0.40;99.90;;;;;;4880593;29;20048;-71
2022/12/13 01:45:26;;;;;;;10.98;7.03;;;-0.20;99.90;;;;;;4877145;29;20127;-72
2022/12/13 01:48:02;;;;;;;8.68;6.68;;;-0.10;99.90;;;;;;4884752;29;20095;-72
2022/12/13 01:50:37;;;;;;;9.35;7.00;;;-0.20;99.90;;;;;;4871863;29;20043;-73
2022/12/13 01:53:08;;;;;;;9.68;6.50;;;-0.30;99.90;;;;;;4886987;29;20724;-72
2022/12/13 01:55:37;;;;;;;9.77;6.82;;;-0.40;99.90;;;;;;4890016;29;20118;-72
2022/12/13 01:58:04;;;;;;;8.85;6.40;;;-0.50;99.90;;;;;;4890244;29;20044;-72
2022/12/13 02:00:32;;;;;;;9.20;6.72;;;-0.50;99.90;;;;;;4891770;29;20118;-72
2022/12/13 02:02:59;;;;;;;10.40;7.50;;;-0.50;99.90;;;;;;4891091;29;20040;-73
2022/12/13 02:05:33;;;;;;;11.75;7.75;;;-0.50;99.90;;;;;;4890956;29;20405;-72
2022/12/13 02:08:01;;;;;;;11.82;7.88;;;-0.50;99.90;;;;;;4888978;29;20078;-72
2022/12/13 02:10:28;;;;;;;9.98;7.10;;;-0.60;99.90;;;;;;4887889;29;20028;-71
2022/12/13 02:12:53;;;;;;;10.23;7.32;;;-0.60;99.90;;;;;;4894256;29;20035;-72
2022/12/13 02:15:20;;;;;;;11.10;7.50;;;-0.60;99.90;;;;;;4895054;29;20080;-72
2022/12/13 02:17:49;;;;;;;10.25;7.43;;;-0.60;99.90;;;;;;4890515;29;20036;-72
2022/12/13 02:20:39;;;;;;;10.63;7.43;;;-0.60;99.90;;;;;;4893755;29;20032;-71
2022/12/13 02:23:19;;;;;;;9.52;7.40;;;-0.50;99.90;;;;;;4886776;29;20102;-72
2022/12/13 02:26:08;;;;;;;10.65;7.07;;;-0.50;99.90;;;;;;4882882;29;20162;-72
2022/12/13 02:28:55;;;;;;;10.95;7.25;;;-0.60;99.90;;;;;;4886238;29;20114;-72
2022/12/13 02:31:30;;;;;;;9.68;6.38;;;-0.50;99.90;;;;;;4887553;29;20115;-72
2022/12/13 02:34:20;;;;;;;9.63;6.82;;;-0.50;99.90;;;;;;4887310;29;20737;-72
2022/12/13 02:37:11;;;;;;;9.50;7.20;;;-0.50;99.90;;;;;;4888472;29;20044;-72
2022/12/13 02:39:43;;;;;;;13.20;8.82;;;-0.60;99.90;;;;;;4890134;29;20064;-72
2022/12/13 02:42:22;;;;;;;10.20;8.20;;;-0.50;99.90;;;;;;4874855;29;20592;-72
2022/12/13 02:44:56;;;;;;;12.35;8.45;;;-0.50;99.90;;;;;;4888036;29;20771;-72
2022/12/13 02:47:24;;;;;;;11.70;7.93;;;-0.40;99.90;;;;;;4884284;29;20042;-72
2022/12/13 02:49:57;;;;;;;10.75;7.68;;;-0.30;99.90;;;;;;4887260;29;20115;-71
2022/12/13 02:52:26;;;;;;;10.45;7.65;;;-0.20;99.90;;;;;;4890427;29;20723;-71
2022/12/13 02:54:55;;;;;;;10.00;7.15;;;-0.20;99.90;;;;;;4877561;29;20032;-72
2022/12/13 02:57:35;;;;;;;11.70;8.00;;;-0.20;99.90;;;;;;4893318;29;20161;-71
2022/12/13 03:00:02;;;;;;;9.20;6.85;;;-0.20;99.90;;;;;;4883041;29;20053;-71
2022/12/13 03:02:59;;;;;;;9.02;6.38;;;-0.40;99.90;;;;;;4894611;29;20020;-74
2022/12/13 03:09:10;;;;;;;10.88;7.05;;;-0.60;99.90;;;;;;4886876;29;20066;-72
2022/12/13 03:15:02;;;;;;;10.23;7.80;;;-0.60;99.90;;;;;;4897861;29;20039;-72
2022/12/13 03:17:36;;;;;;;13.40;7.85;;;-0.70;99.90;;;;;;4899000;29;20043;-71
2022/12/13 03:20:02;;;;;;;15.68;8.75;;;-0.70;99.90;;;;;;4881035;29;20027;-72
2022/12/13 03:22:31;;;;;;;18.60;10.93;;;-0.60;99.90;;;;;;4897497;29;20025;-73
2022/12/13 03:24:58;;;;;;;14.02;9.55;;;-0.50;99.90;;;;;;4895280;29;20016;-72
2022/12/13 03:27:23;;;;;;;12.48;7.97;;;-0.50;99.90;;;;;;4899386;29;20441;-72
2022/12/13 03:29:49;;;;;;;15.30;10.10;;;-0.70;99.90;;;;;;4894872;29;20044;-72
2022/12/13 03:32:14;;;;;;;22.48;13.57;;;-0.90;99.90;;;;;;4898953;29;20560;-73
2022/12/13 03:34:40;;;;;;;12.90;9.50;;;-0.80;99.90;;;;;;4900955;29;20024;-73
2022/12/13 03:37:05;;;;;;;10.60;7.60;;;-0.90;99.90;;;;;;4892733;29;20694;-72
2022/12/13 03:39:31;;;;;;;9.75;7.15;;;-1.20;99.90;;;;;;4887326;29;20047;-72
2022/12/13 03:41:57;;;;;;;11.18;8.00;;;-1.30;99.90;;;;;;4896083;29;20062;-72
2022/12/13 03:44:22;;;;;;;9.93;7.63;;;-1.40;99.90;;;;;;4892651;29;20036;-73
2022/12/13 03:46:48;;;;;;;11.65;7.15;;;-1.40;99.90;;;;;;4897269;29;20048;-72
2022/12/13 03:49:14;;;;;;;13.18;8.45;;;-1.30;99.90;;;;;;4893516;29;20067;-72
2022/12/13 03:51:40;;;;;;;10.52;7.45;;;-1.20;99.90;;;;;;4899696;29;20035;-72
2022/12/13 03:54:06;;;;;;;10.25;7.32;;;-1.20;99.90;;;;;;4894744;29;20473;-72
2022/12/13 03:56:31;;;;;;;10.25;7.40;;;-1.30;99.90;;;;;;4902794;29;20039;-72
2022/12/13 03:58:57;;;;;;;9.38;7.25;;;-1.30;99.90;;;;;;4897404;29;20095;-72
2022/12/13 04:01:23;;;;;;;10.30;7.97;;;-1.30;99.90;;;;;;4879692;29;20167;-71
2022/12/13 04:03:48;;;;;;;9.38;7.07;;;-1.40;99.90;;;;;;4899793;29;20045;-72
2022/12/13 04:06:15;;;;;;;10.57;7.97;;;-1.40;99.90;;;;;;4902799;29;20127;-72
2022/12/13 04:08:40;;;;;;;10.68;7.30;;;-1.40;99.90;;;;;;4897092;29;20051;-72
2022/12/13 04:13:52;;;;;;;11.65;7.95;;;-1.50;99.90;;;;;;4896825;29;20823;-72
2022/12/13 04:16:18;;;;;;;10.43;7.75;;;-1.60;99.90;;;;;;4900117;29;20596;-72
2022/12/13 04:18:43;;;;;;;9.45;6.78;;;-1.60;99.90;;;;;;4900370;29;20044;-72
2022/12/13 04:21:09;;;;;;;10.65;7.15;;;-1.50;99.90;;;;;;4895274;29;20094;-72
2022/12/13 04:23:35;;;;;;;10.80;7.45;;;-1.60;99.90;;;;;;4899913;29;20501;-72
2022/12/13 04:26:01;;;;;;;9.15;6.70;;;-1.60;99.90;;;;;;4895648;29;20135;-72
2022/12/13 04:28:26;;;;;;;11.02;6.97;;;-1.60;99.90;;;;;;4895536;29;20028;-72
2022/12/13 04:30:52;;;;;;;11.18;7.00;;;-1.60;99.90;;;;;;4894235;29;20095;-72
2022/12/13 04:33:19;;;;;;;10.13;6.78;;;-1.60;99.90;;;;;;4893969;29;20117;-72
2022/12/13 04:35:46;;;;;;;11.63;7.30;;;-1.60;99.90;;;;;;4892254;29;20032;-72
2022/12/13 04:38:12;;;;;;;12.93;8.82;;;-1.60;99.90;;;;;;4895044;29;20033;-72
2022/12/13 04:40:37;;;;;;;15.43;9.98;;;-1.60;99.90;;;;;;4891620;29;20032;-72
2022/12/13 04:43:03;;;;;;;16.30;10.40;;;-1.40;99.90;;;;;;4884168;29;20419;-73
2022/12/13 04:45:29;;;;;;;18.75;11.20;;;-1.30;99.90;;;;;;4893815;29;20068;-72
2022/12/13 04:47:54;;;;;;;17.95;10.15;;;-1.60;99.90;;;;;;4888693;29;20115;-73
2022/12/13 04:50:20;;;;;;;11.75;7.68;;;-1.90;99.90;;;;;;4888872;29;20481;-73
2022/12/13 04:52:46;;;;;;;11.00;8.25;;;-2.10;99.90;;;;;;4894667;29;20084;-73
2022/12/13 04:55:11;;;;;;;14.30;8.50;;;-2.20;99.90;;;;;;4899597;29;20016;-73
2022/12/13 04:57:37;;;;;;;11.60;7.30;;;-2.40;99.90;;;;;;4896388;29;20084;-73
2022/12/13 05:00:04;;;;;;;9.95;7.28;;;-2.40;99.90;;;;;;4894394;29;20076;-73
2022/12/13 05:02:30;;;;;;;13.50;7.82;;;-2.40;99.90;;;;;;4898590;29;20050;-73
2022/12/13 05:04:56;;;;;;;14.05;8.13;;;-2.30;99.90;;;;;;4896703;29;21049;-73
2022/12/13 05:07:22;;;;;;;11.80;7.43;;;-2.40;99.90;;;;;;4899940;29;20702;-73
2022/12/13 05:09:48;;;;;;;11.25;7.05;;;-2.50;99.90;;;;;;4894416;29;20032;-73
2022/12/13 05:12:13;;;;;;;8.77;6.22;;;-2.50;99.90;;;;;;4886123;29;20036;-74
2022/12/13 05:14:39;;;;;;;10.57;7.57;;;-2.50;99.90;;;;;;4893116;29;20489;-73
2022/12/13 05:17:04;;;;;;;26.40;15.02;;;-2.60;99.90;;;;;;4897173;29;20163;-74
2022/12/13 05:19:30;;;;;;;19.15;11.57;;;-2.60;99.90;;;;;;4893896;29;20036;-73
2022/12/13 05:21:56;;;;;;;9.93;6.22;;;-2.50;99.90;;;;;;4894824;29;20072;-73
2022/12/13 05:24:21;;;;;;;21.25;14.23;;;-2.70;99.90;;;;;;4886513;29;20036;-73
2022/12/13 05:26:47;;;;;;;30.65;21.23;;;-2.90;99.90;;;;;;4889323;29;20040;-73
2022/12/13 05:29:13;;;;;;;42.22;24.05;;;-2.70;99.90;;;;;;4887322;29;20080;-72
2022/12/13 05:31:38;;;;;;;33.85;18.67;;;-2.60;99.90;;;;;;4895124;29;20155;-71
2022/12/13 05:34:04;;;;;;;21.67;12.45;;;-2.50;99.90;;;;;;4900872;29;20120;-72
2022/12/13 05:36:30;;;;;;;18.02;10.15;;;-2.50;99.90;;;;;;4895295;29;20040;-71
2022/12/13 05:38:55;;;;;;;17.30;10.20;;;-2.80;99.90;;;;;;4897510;29;20036;-72
2022/12/13 05:41:25;;;;;;;18.35;10.30;;;-2.90;99.90;;;;;;4891380;29;20043;-72
2022/12/13 05:43:51;;;;;;;40.45;21.40;;;-3.00;99.90;;;;;;4888299;29;20540;-73
2022/12/13 05:46:17;;;;;;;21.40;11.70;;;-2.90;99.90;;;;;;4900907;29;20044;-73
2022/12/13 05:48:43;;;;;;;16.45;10.32;;;-2.90;99.90;;;;;;4879507;29;20028;-72
2022/12/13 05:51:09;;;;;;;31.92;18.35;;;-3.00;99.90;;;;;;4894045;29;22101;-72
2022/12/13 05:53:35;;;;;;;26.25;13.13;;;-3.10;99.90;;;;;;4893548;29;20016;-74
2022/12/13 05:56:01;;;;;;;18.27;10.93;;;-3.00;99.90;;;;;;4896454;29;20036;-74
2022/12/13 05:58:27;;;;;;;13.40;8.70;;;-3.00;99.90;;;;;;4897126;29;20057;-75
2022/12/13 06:00:53;;;;;;;25.67;15.13;;;-3.10;99.90;;;;;;4894607;29;20043;-72
2022/12/13 06:03:19;;;;;;;42.90;23.63;;;-3.30;99.90;;;;;;4894460;29;20036;-71
2022/12/13 06:05:45;;;;;;;30.92;17.13;;;-3.20;99.90;;;;;;4896701;29;20450;-70
2022/12/13 06:08:10;;;;;;;25.85;15.32;;;-3.30;99.90;;;;;;4892829;29;20083;-71
2022/12/13 06:10:36;;;;;;;28.25;16.25;;;-3.50;99.90;;;;;;4896633;29;20032;-71
2022/12/13 06:13:03;;;;;;;28.55;15.45;;;-3.50;99.90;;;;;;4885522;29;20846;-72
2022/12/13 06:15:29;;;;;;;15.00;9.40;;;-3.50;99.90;;;;;;4895514;29;20024;-72
2022/12/13 06:17:54;;;;;;;11.38;7.47;;;-3.70;99.90;;;;;;4885241;29;20595;-72
2022/12/13 06:20:20;;;;;;;15.30;9.23;;;-3.60;99.90;;;;;;4889845;29;20029;-72
2022/12/13 06:22:46;;;;;;;11.60;7.35;;;-3.60;99.90;;;;;;4878520;29;20028;-73
2022/12/13 06:25:11;;;;;;;11.60;7.13;;;-3.60;99.90;;;;;;4882027;29;20043;-73
2022/12/13 06:27:37;;;;;;;16.23;10.30;;;-3.60;99.90;;;;;;4880424;29;20047;-72
2022/12/13 06:30:03;;;;;;;17.70;11.38;;;-3.50;99.90;;;;;;4887730;29;20047;-75
2022/12/13 06:32:28;;;;;;;17.10;9.77;;;-3.50;99.90;;;;;;4886906;29;20030;-72
2022/12/13 06:34:54;;;;;;;18.65;12.57;;;-3.40;99.90;;;;;;4884472;29;20036;-71
2022/12/13 06:37:20;;;;;;;63.15;26.17;;;-3.40;99.90;;;;;;4887938;29;20305;-70
2022/12/13 06:39:47;;;;;;;21.02;13.57;;;-3.40;99.90;;;;;;4888771;29;20076;-70
2022/12/13 06:42:18;;;;;;;17.92;10.85;;;-3.50;99.90;;;;;;4888822;29;20036;-75
2022/12/13 06:44:43;;;;;;;16.95;11.43;;;-3.60;99.90;;;;;;4898884;29;20040;-74
2022/12/13 06:47:10;;;;;;;12.18;8.75;;;-3.60;99.90;;;;;;4904776;29;20043;-74
2022/12/13 06:49:36;;;;;;;14.55;9.20;;;-3.60;99.90;;;;;;4903400;29;21244;-74
2022/12/13 06:52:01;;;;;;;17.90;11.85;;;-3.50;99.90;;;;;;4900756;29;20052;-74
2022/12/13 06:54:27;;;;;;;18.17;11.73;;;-3.50;99.90;;;;;;4894945;29;20735;-74
2022/12/13 06:56:52;;;;;;;23.35;15.50;;;-3.40;99.90;;;;;;4899884;29;20100;-74
2022/12/13 06:59:18;;;;;;;26.98;19.80;;;-3.40;99.90;;;;;;4900662;29;20040;-70
2022/12/13 07:01:44;;;;;;;30.10;18.45;;;-3.60;99.90;;;;;;4898525;29;20051;-69
2022/12/13 07:04:11;;;;;;;34.30;20.33;;;-3.60;99.90;;;;;;4901472;29;20110;-69
2022/12/13 07:06:37;;;;;;;12.50;8.65;;;-3.40;99.90;;;;;;4896266;29;20123;-70
2022/12/13 07:09:03;;;;;;;9.82;6.97;;;-3.40;99.90;;;;;;4900278;29;20409;-69
2022/12/13 07:11:30;;;;;;;21.08;11.32;;;-3.50;99.90;;;;;;4901372;29;20024;-69
2022/12/13 07:13:56;;;;;;;21.50;13.20;;;-3.50;99.90;;;;;;4893503;29;20024;-69
2022/12/13 07:16:23;;;;;;;19.63;12.60;;;-3.80;99.90;;;;;;4893058;29;20088;-69
2022/12/13 07:18:59;;;;;;;15.23;10.27;;;-3.80;99.90;;;;;;4889761;29;20029;-68
2022/12/13 07:21:25;;;;;;;18.33;10.88;;;-3.70;99.90;;;;;;4890649;29;20028;-70
2022/12/13 07:23:51;;;;;;;21.45;13.10;;;-3.70;99.90;;;;;;4898174;29;20039;-71
2022/12/13 07:26:18;;;;;;;22.58;13.68;;;-3.60;99.90;;;;;;4892448;29;20048;-71
2022/12/13 07:28:45;;;;;;;22.55;13.73;;;-3.40;99.90;;;;;;4884090;29;20036;-69
2022/12/13 07:31:11;;;;;;;23.98;14.75;;;-3.20;99.90;;;;;;4889120;29;20107;-69
2022/12/13 07:33:37;;;;;;;21.27;13.00;;;-3.10;99.90;;;;;;4902555;29;20036;-70
2022/12/13 07:36:05;;;;;;;22.90;12.43;;;-2.90;99.90;;;;;;4895912;29;20040;-75
2022/12/13 07:38:35;;;;;;;20.17;12.07;;;-2.80;99.90;;;;;;4893087;29;20079;-75
2022/12/13 07:41:01;;;;;;;54.70;29.25;;;-2.70;99.90;;;;;;4900406;29;20066;-77
2022/12/13 07:43:28;;;;;;;63.28;33.55;;;-2.50;99.90;;;;;;4891564;29;20032;-74
2022/12/13 07:45:57;;;;;;;45.95;24.85;;;-2.20;99.90;;;;;;4893088;29;20040;-75
2022/12/13 07:48:22;;;;;;;27.42;16.27;;;-2.00;99.90;;;;;;4895523;29;20087;-75
2022/12/13 07:50:48;;;;;;;22.85;15.32;;;-1.70;99.90;;;;;;4895637;29;20048;-75
2022/12/13 07:53:13;;;;;;;38.80;22.65;;;-1.40;99.90;;;;;;4892595;29;20067;-76
2022/12/13 07:55:39;;;;;;;37.40;23.17;;;-1.20;99.90;;;;;;4895358;29;20087;-75
2022/12/13 07:58:07;;;;;;;39.10;23.00;;;-1.20;99.90;;;;;;4900386;29;20144;-75
2022/12/13 08:00:33;;;;;;;38.97;23.27;;;-1.20;99.90;;;;;;4898323;29;20040;-74
2022/12/13 08:03:00;;;;;;;35.17;20.38;;;-1.20;99.90;;;;;;4888390;29;20554;-74
2022/12/13 08:05:25;;;;;;;31.30;19.60;;;-1.20;99.90;;;;;;4892010;29;20024;-76
2022/12/13 08:07:51;;;;;;;34.58;21.30;;;-1.10;99.90;;;;;;4890959;29;20043;-74
2022/12/13 08:10:17;;;;;;;48.00;28.65;;;-1.10;99.90;;;;;;4894930;29;20032;-70
2022/12/13 08:12:43;;;;;;;100.43;51.28;;;-1.00;99.90;;;;;;4896929;29;21324;-74
2022/12/13 08:15:09;;;;;;;53.95;29.42;;;-0.90;99.90;;;;;;4877485;29;20052;-74
2022/12/13 08:17:35;;;;;;;51.10;29.33;;;-1.00;99.90;;;;;;4885174;29;20558;-75
2022/12/13 08:20:00;;;;;;;27.05;16.65;;;-0.90;99.90;;;;;;4893273;29;20095;-74
2022/12/13 08:22:26;;;;;;;33.13;19.92;;;-0.50;99.90;;;;;;4890668;29;20056;-74
2022/12/13 08:24:51;;;;;;;16.20;11.10;;;-0.30;99.90;;;;;;4893424;29;20433;-74
2022/12/13 08:27:17;;;;;;;23.27;14.07;;;-0.10;99.90;;;;;;4886397;29;20550;-74
2022/12/13 08:29:43;;;;;;;15.88;11.38;;;0.10;99.90;;;;;;4892849;29;20033;-68
2022/12/13 08:32:11;;;;;;;20.08;13.38;;;0.20;99.90;;;;;;4887030;29;20520;-69
2022/12/13 08:34:37;;;;;;;36.13;20.92;;;0.40;99.90;;;;;;4885650;29;20024;-68
2022/12/13 08:37:04;;;;;;;23.80;16.00;;;0.30;99.90;;;;;;4889246;29;20091;-68
2022/12/13 08:39:33;;;;;;;16.13;9.70;;;0.10;99.90;;;;;;4890484;29;20058;-70
2022/12/13 08:41:59;;;;;;;63.40;31.83;;;-0.10;99.90;;;;;;4897449;29;20075;-68
2022/12/13 08:44:24;;;;;;;19.15;12.93;;;-0.30;99.90;;;;;;4892087;29;20461;-68
2022/12/13 08:46:50;;;;;;;27.63;17.08;;;-0.30;99.90;;;;;;4891965;29;20063;-68
2022/12/13 08:49:16;;;;;;;12.57;8.52;;;-0.20;99.90;;;;;;4898295;29;20103;-74
2022/12/13 08:51:41;;;;;;;22.33;13.90;;;-0.20;99.90;;;;;;4893496;29;20072;-75
2022/12/13 08:54:07;;;;;;;20.35;12.50;;;-0.10;99.90;;;;;;4892833;29;21207;-74
2022/12/13 08:56:33;;;;;;;24.85;14.32;;;-0.10;99.90;;;;;;4885622;29;20028;-74
2022/12/13 08:58:58;;;;;;;21.33;13.20;;;0.20;99.90;;;;;;4893446;29;20570;-75
2022/12/13 09:01:24;;;;;;;21.30;13.02;;;0.50;99.90;;;;;;4894767;29;20422;-75
2022/12/13 09:03:50;;;;;;;33.72;19.05;;;0.70;99.90;;;;;;4891244;29;20509;-75
2022/12/13 09:06:16;;;;;;;18.88;11.68;;;0.50;99.90;;;;;;4892832;29;20052;-75
2022/12/13 09:08:42;;;;;;;35.50;19.38;;;0.10;99.90;;;;;;4884138;29;20032;-75
2022/12/13 09:11:10;;;;;;;28.08;16.50;;;0.10;99.90;;;;;;4895610;29;20040;-74
2022/12/13 09:13:38;;;;;;;27.52;16.88;;;0.40;99.90;;;;;;4896716;29;20059;-74
2022/12/13 09:16:17;;;;;;;34.72;18.58;;;0.40;99.90;;;;;;4879712;29;20028;-74
2022/12/13 09:18:42;;;;;;;14.25;9.73;;;0.40;99.90;;;;;;4891126;29;20060;-74
2022/12/13 09:21:10;;;;;;;20.10;13.77;;;0.60;99.90;;;;;;4901961;29;20040;-74
2022/12/13 09:23:36;;;;;;;18.48;14.27;;;0.80;99.90;;;;;;4884688;29;20032;-74
2022/12/13 09:26:01;;;;;;;20.27;12.60;;;0.70;99.90;;;;;;4901195;29;20055;-74
2022/12/13 09:28:28;;;;;;;34.90;26.55;;;0.50;99.90;;;;;;4892377;29;20060;-74
2022/12/13 09:30:55;;;;;;;27.05;21.90;;;0.40;99.90;;;;;;4898233;29;20036;-75
2022/12/13 09:33:21;;;;;;;9.55;6.75;;;0.40;99.90;;;;;;4891092;29;20032;-75
2022/12/13 09:35:47;;;;;;;11.20;7.57;;;0.60;99.90;;;;;;4878591;29;20052;-75
2022/12/13 09:38:13;;;;;;;16.80;13.93;;;1.00;99.90;;;;;;4888146;29;20034;-75
2022/12/13 09:40:42;;;;;;;20.92;15.25;;;1.30;99.90;;;;;;4893850;29;20585;-75
2022/12/13 09:43:28;;;;;;;11.70;8.75;;;1.20;99.90;;;;;;4883815;29;20028;-75
2022/12/13 09:45:53;;;;;;;16.08;9.30;;;1.20;99.90;;;;;;4886437;29;20063;-69
2022/12/13 09:48:20;;;;;;;13.05;10.18;;;1.10;99.90;;;;;;4894497;29;20759;-69
2022/12/13 09:50:47;;;;;;;13.10;9.55;;;1.00;99.90;;;;;;4901929;29;20032;-69
2022/12/13 09:53:18;;;;;;;9.48;7.32;;;0.80;99.90;;;;;;4899777;29;20426;-69
2022/12/13 09:55:49;;;;;;;9.77;7.00;;;0.70;99.90;;;;;;4895368;29;20032;-69
2022/12/13 09:58:22;;;;;;;11.20;7.43;;;0.50;99.90;;;;;;4894951;29;20044;-68
2022/12/13 10:00:50;;;;;;;15.48;10.50;;;0.50;99.90;;;;;;4893479;29;20068;-69
2022/12/13 10:03:18;;;;;;;9.02;6.53;;;0.60;99.90;;;;;;4902858;29;20099;-69
2022/12/13 10:05:55;;;;;;;7.50;5.05;;;0.50;99.90;;;;;;4894967;29;20036;-69
2022/12/13 10:08:26;;;;;;;10.20;6.75;;;0.40;99.90;;;;;;4891653;29;20585;-69
2022/12/13 10:10:52;;;;;;;8.82;6.30;;;0.40;99.90;;;;;;4888886;29;20032;-69
2022/12/13 10:13:23;;;;;;;10.20;6.45;;;0.40;99.90;;;;;;4892460;29;20031;-69
2022/12/13 10:15:51;;;;;;;;;;;0.50;99.90;;;;;;4890021;29;20028;-69
2022/12/13 10:18:30;;;;;;;8.60;5.97;;;0.60;99.90;;;;;;4887087;29;20331;-69
2022/12/13 10:20:56;;;;;;;10.10;6.28;;;0.60;99.90;;;;;;4900971;29;20035;-75
2022/12/13 10:23:21;;;;;;;8.75;6.38;;;0.60;99.90;;;;;;4894975;29;20056;-73
2022/12/13 10:25:55;;;;;;;9.38;5.82;;;0.50;99.90;;;;;;4895765;29;20127;-75
2022/12/13 10:28:32;;;;;;;7.47;5.78;;;0.50;99.90;;;;;;4884182;29;20104;-73
2022/12/13 10:30:58;;;;;;;9.48;6.35;;;0.50;99.90;;;;;;4886414;29;20040;-73
2022/12/13 10:33:36;;;;;;;8.90;6.10;;;0.60;99.90;;;;;;4895157;29;20107;-75
2022/12/13 10:36:40;;;;;;;7.95;6.10;;;0.70;99.90;;;;;;4899268;29;20016;-74
2022/12/13 10:39:13;;;;;;;10.25;6.78;;;0.80;99.90;;;;;;4898668;29;20032;-74
2022/12/13 10:41:39;;;;;;;9.10;6.57;;;0.80;99.90;;;;;;4893537;29;20040;-75
2022/12/13 10:44:19;;;;;;;8.52;6.65;;;0.70;99.90;;;;;;4898419;29;20040;-73
2022/12/13 10:46:52;;;;;;;9.38;6.80;;;0.80;99.90;;;;;;4895035;29;20044;-74
2022/12/13 10:49:28;;;;;;;10.18;7.65;;;1.00;99.90;;;;;;4889687;29;20044;-74
2022/12/13 10:51:56;;;;;;;9.55;6.82;;;1.30;99.90;;;;;;4897851;29;20032;-74
2022/12/13 10:54:22;;;;;;;11.20;7.43;;;1.30;99.90;;;;;;4889209;29;20025;-74
2022/12/13 10:56:49;;;;;;;10.27;7.15;;;1.40;99.90;;;;;;4889945;29;20054;-74
2022/12/13 10:59:26;;;;;;;9.48;7.00;;;1.50;99.90;;;;;;4899067;29;20556;-74
2022/12/13 11:01:51;;;;;;;10.25;7.65;;;1.50;99.90;;;;;;4900055;29;20029;-74
2022/12/13 11:04:30;;;;;;;8.68;6.30;;;1.60;99.90;;;;;;4887592;29;20087;-74
2022/12/13 11:07:00;;;;;;;9.38;6.80;;;1.60;99.90;;;;;;4889286;29;20035;-74
2022/12/13 11:09:33;;;;;;;9.27;6.45;;;1.60;99.90;;;;;;4887909;29;20027;-74
2022/12/13 11:12:02;;;;;;;8.52;5.88;;;1.70;99.90;;;;;;4902499;29;20425;-74
2022/12/13 11:14:32;;;;;;;10.90;8.65;;;1.60;99.90;;;;;;4901009;29;20028;-74
2022/12/13 11:17:13;;;;;;;10.45;8.63;;;1.60;99.90;;;;;;4897059;29;20021;-74
2022/12/13 11:19:45;;;;;;;9.07;7.03;;;1.70;99.90;;;;;;4891583;29;20374;-75
2022/12/13 11:22:20;;;;;;;8.07;6.43;;;1.80;99.90;;;;;;4882494;29;20029;-74
2022/12/13 11:24:51;;;;;;;8.85;6.20;;;1.80;99.90;;;;;;4890477;29;20028;-75
2022/12/13 11:27:43;;;;;;;10.40;6.65;;;2.00;99.90;;;;;;4895804;29;20056;-74
2022/12/13 11:30:40;;;;;;;8.80;6.55;;;2.10;99.90;;;;;;4887053;29;20040;-74
2022/12/13 11:33:15;;;;;;;10.07;7.20;;;2.20;99.90;;;;;;4889421;29;20108;-74
2022/12/13 11:36:17;;;;;;;10.88;7.07;;;2.30;99.90;;;;;;4899688;29;20087;-75
2022/12/13 11:39:14;;;;;;;11.50;6.97;;;2.40;99.90;;;;;;4898158;29;20032;-74
2022/12/13 11:41:57;;;;;;;8.18;6.32;;;2.20;99.90;;;;;;4898866;29;20138;-75
2022/12/13 11:45:00;;;;;;;9.88;6.47;;;2.10;99.90;;;;;;4900769;29;20034;-74
2022/12/13 11:47:55;;;;;;;9.63;7.25;;;2.20;99.90;;;;;;4901417;29;20099;-74
2022/12/13 11:50:27;;;;;;;7.68;6.22;;;2.20;99.90;;;;;;4894968;29;20044;-75
2022/12/13 11:52:58;;;;;;;9.02;6.70;;;2.30;99.90;;;;;;4903953;29;20075;-68
2022/12/13 11:55:38;;;;;;;8.57;6.72;;;2.40;99.90;;;;;;4900583;29;20060;-68
2022/12/13 11:58:19;;;;;;;9.95;6.90;;;2.50;99.90;;;;;;4900000;29;20047;-69
2022/12/13 12:00:55;;;;;;;7.82;5.63;;;2.50;99.90;;;;;;4888489;29;20040;-69
2022/12/13 12:03:32;;;;;;;8.25;6.20;;;2.60;99.90;;;;;;4905092;29;20489;-68
2022/12/13 12:06:01;;;;;;;8.82;5.47;;;2.60;99.90;;;;;;4893569;29;20036;-68
2022/12/13 12:08:53;;;;;;;9.60;5.85;;;2.60;99.90;;;;;;4900559;29;20040;-69
2022/12/13 12:11:55;;;;;;;9.52;6.63;;;2.60;99.90;;;;;;4884176;29;20501;-74
2022/12/13 12:14:35;;;;;;;9.20;7.15;;;2.60;99.90;;;;;;4896254;29;20168;-74
2022/12/13 12:17:03;;;;;;;10.10;6.57;;;2.60;99.90;;;;;;4886143;29;20080;-74
2022/12/13 12:19:37;;;;;;;7.60;5.70;;;2.50;99.90;;;;;;4873230;29;20899;-74
2022/12/13 12:22:20;;;;;;;8.80;6.20;;;2.40;99.90;;;;;;4885007;29;20032;-74
2022/12/13 12:25:10;;;;;;;7.38;5.30;;;2.40;99.90;;;;;;4882906;29;20043;-73
2022/12/13 12:27:42;;;;;;;8.35;5.47;;;2.40;99.90;;;;;;4888293;29;20048;-72
2022/12/13 12:30:58;;;;;;;9.07;6.03;;;2.30;99.90;;;;;;4888770;29;20024;-72
2022/12/13 12:33:52;;;;;;;8.10;5.97;;;2.30;99.90;;;;;;4859161;29;20040;-73
2022/12/13 12:36:49;;;;;;;7.90;5.57;;;2.40;99.90;;;;;;4890903;29;20033;-73
2022/12/13 12:39:26;;;;;;;10.57;6.13;;;2.40;99.90;;;;;;4892084;29;20034;-73
2022/12/13 12:42:03;;;;;;;9.27;6.35;;;2.30;99.90;;;;;;4894912;29;20992;-73
2022/12/13 12:44:37;;;;;;;8.85;5.57;;;2.30;99.90;;;;;;4888112;29;20115;-73
2022/12/13 12:47:28;;;;;;;8.85;5.65;;;2.20;99.90;;;;;;4879865;29;20043;-73
2022/12/13 12:50:28;;;;;;;8.35;5.25;;;2.20;99.90;;;;;;4887993;29;20047;-69
2022/12/13 12:53:09;;;;;;;8.35;5.50;;;2.30;99.90;;;;;;4884734;29;20032;-69
2022/12/13 12:55:55;;;;;;;9.15;5.82;;;2.30;99.90;;;;;;4890665;29;20048;-68
2022/12/13 12:58:53;;;;;;;10.07;6.82;;;2.50;99.90;;;;;;4888353;29;20782;-69
2022/12/13 13:01:33;;;;;;;6.90;4.95;;;2.50;99.90;;;;;;4857563;29;20052;-69
2022/12/13 13:04:04;;;;;;;7.40;4.97;;;2.40;99.90;;;;;;4886800;29;20051;-69